AirNav   Air Wisconsin Up To $57,000 Bonus
 
 1186 users online  

DC03 US Park Police Eagle's Nest Heliport
Washington, District of Columbia, USA

GOING TO WASHINGTON?


FAA INFORMATION EFFECTIVE 07 NOVEMBER 2019

Location

FAA Identifier: DC03
Lat/Long: 38-51-59.4040N 076-59-33.9120W
38-51.990067N 076-59.565200W
38.8665011,-76.9927533
(estimated)
Elevation: 14 ft. / 4 m (estimated)
Variation: 09W (1985)
Time zone: UTC -5 (UTC -4 during Daylight Saving Time)
Zip code: 20020

Heliport Operations

Heliport use: Private use. Permission required prior to landing
Activation date: 03/1973
Control tower: no
ARTCC: WASHINGTON CENTER
FSS: LEESBURG FLIGHT SERVICE STATION
Attendance: 0600-0200
Wind indicator: yes
Segmented circle: no
Lights: SS-SR

Heliport Communications

WX ASOS at DCA (2.3 nm SW): 132.65 (703-412-8140)
WX AWOS-3 at CGS (8 nm NE): 121.225 (301-864-5497)
WX AWOS-3 at FME (17 nm NE): 123.925
WX AWOS-3PT at GAI (20 nm NW): 128.275 (301-977-2971)

Nearby radio navigation aids

VOR radial/distance  VOR name  Freq  Var
DCAr087/2.1WASHINGTON VOR/DME111.0009W
ADWr311/6.9ANDREWS VORTAC113.1010W
OTTr320/15.1NOTTINGHAM VORTAC113.7010W
AMLr108/22.5ARMEL VOR/DME113.5008W
BALr231/23.9BALTIMORE VORTAC115.1011W
BRVr037/36.0BROOKE VORTAC114.5009W
FDKr159/(37.3)FREDERICK VOR109.0008W
EMIr189/37.7WESTMINSTER VORTAC117.9008W

 
NDB name  Hdg/Dist  Freq  Var  ID
OXONN026/6.233211WDCA -.. -.-. .-
GEORGETOWN131/7.232309WGTN --. - -.
DAVEE033/13.522309WDAA -.. .- .-
ELLICOTT213/27.237111WFND ..-. -. -..

Heliport Services

Runway Information

Helipad H2

Dimensions: 70 x 70 ft. / 21 x 21 m
Surface: asphalt/concrete
Runway edge lights: PERI
Traffic pattern: leftleft

Helipad H1

Dimensions: 40 x 40 ft. / 12 x 12 m
Surface: asphalt/concrete
Runway edge lights: PERI
Latitude: 38-51.990067N
Longitude: 076-59.565200W
Elevation: 14.0 ft.
Traffic pattern: leftleft

Heliport Ownership and Management from official FAA records

Ownership: Publicly-owned
Owner: DEPT.INTERIOR NPS NCR USPP
1100 OHIO DR, SW
WASHINGTON, DC 20242
Phone 202-619-7105
Manager: LT. MICHAEL LIBBY
1100 OHIO DR, SW
WASHINGTON, DC 20242
Phone 202-690-0738

Heliport Operational Statistics

Aircraft based on the field: 3
Helicopters: 3
    

Additional Remarks

BLUE TAXI LGTS BTWN HELIPADS
FOR CD CTC POTOMAC APCH AT 866-599-3874.

Instrument Procedures

There are no published instrument procedures at DC03.

Some nearby airports with instrument procedures:

KDCA - Ronald Reagan Washington National Airport (2 nm SW)
KADW - Joint Base Andrews (7 nm SE)
KVKX - Potomac Airfield (7 nm S)
KCGS - College Park Airport (8 nm NE)
W32 - Washington Executive Airport/Hyde Field (8 nm S)
W00 - Freeway Airport (11 nm NE)
KDAA - Davison Army Airfield (13 nm SW)
2W5 - Maryland Airport (17 nm S)
KFME - Tipton Airport (17 nm NE)
KGAI - Montgomery County Airpark (20 nm NW)
 
Loc | Ops | Rwys | IFR | FBO | Links
Com | Nav | Svcs | Stats | Notes
Area around DC03 (US Park Police Eagle's Nest Heliport)
 
Road maps at: MapQuest Bing Google
 
Aerial photo
No photo
 
Sectional chart

 
Airport distance calculator
Flying to US Park Police Eagle's Nest Heliport? Find the distance to fly.

From to DC03

Sunrise and sunset
Times for 21-Nov-2019
 Local
(UTC-5)
 Zulu
(UTC)
Morning civil twilight06:2911:29
Sunrise06:5811:58
Sunset16:5021:50
Evening civil twilight17:1822:18

Current date and time
Zulu (UTC)  21-Nov-2019 14:30:41
Local (UTC-5)  21-Nov-2019 09:30:41
 
METAR
KDCA 
2nm SW 
211352Z 12003KT 10SM BKN250 07/01 A3030 RMK AO2 SLP259 T00720006
KADW 
7nm SE 
211356Z 32004KT 10SM FEW090 08/M01 A3027 RMK AO2A SLP258 T00771008 $
KCGS 
8nm NE 
211415Z AUTO 00000KT 10SM CLR 08/M02 A3028 RMK AO1 T00761022
KDAA 
12nm SW 
211356Z AUTO 30003KT 10SM CLR 08/00 A3029 RMK AO2 SLP260 T00751002 $
KFME 
17nm NE 
211415Z AUTO 30003KT 10SM CLR 05/01 A3030 RMK AO1
KGAI 
20nm NW 
211356Z AUTO 00000KT 10SM CLR 06/M01 A3028 RMK AO2 SLP271 T00561006
TAF
KDCA 
2nm SW 
211138Z 2112/2218 33006KT P6SM BKN250 FM211700 26004KT P6SM FEW250 FM211900 23004KT P6SM SCT250 FM212100 20005KT P6SM BKN150
KADW 
7nm SE 
210900Z 2109/2215 33009KT 9999 SKC QNH3020INS BECMG 2116/2117 27009KT 9999 BKN170 QNH2999INS BECMG 2203/2204 20009KT 9999 BKN080 QNH2993INS BECMG 2208/2209 22009KT 9999 BKN015 QNH2989INS TX10/2120Z TN00/2111Z
KDAA 
12nm SW 
211000Z 2110/2216 31009KT 9999 FEW250 QNH3009INS BECMG 2122/2123 20006KT 9999 SCT100 BKN150 OVC220 QNH3000INS BECMG 2205/2206 20006KT 9999 BKN065 OVC100 WS015/24035KT QNH2989INS TX11/2120Z TN01/2110Z
NOTAMs
Click for the latest NOTAMs
NOTAMs are issued by the DoD/FAA and will open in a separate window not controlled by AirNav.

 

 
 

Would you like to see your business listed on this page?

 If your business provides an interesting product or service to pilots, flight crews, aircraft, or users of the US Park Police Eagle's Nest Heliport, you should consider listing it here.  To start the listing process, click on the button below
 
Add a business
 

Other Pages about US Park Police Eagle's Nest Heliport

Update a link
 
Copyright © AirNav, LLC. All rights reserved. Privacy Policy  Contact